Time,TemperatureF,DewpointF,PressureIn,WindDirection,WindDirectionDegrees,WindSpeedMPH,WindSpeedGustMPH,Humidity,HourlyPrecipIn,Conditions,Clouds,dailyrainin,SoftwareType,DateUTC
2013-06-06 00:02:00,77.2,65.8,29.81,ESE,112,1.2,1.2,68,0.00,CLR,,0.00,WeatherDisplay:10.37,2013-06-06 05:02:00,
2013-06-06 00:07:00,76.8,67.9,29.81,ESE,112,0.0,0.0,74,0.00,CLR,,0.00,WeatherDisplay:10.37,2013-06-06 05:07:00,
2013-06-06 00:12:00,76.5,68.7,29.81,ESE,112,0.0,0.0,77,0.00,CLR,,0.00,WeatherDisplay:10.37,2013-06-06 05:12:00,
2013-06-06 00:17:00,75.9,68.2,29.81,ESE,112,0.0,0.0,77,0.00,CLR,,0.00,WeatherDisplay:10.37,2013-06-06 05:17:00,
2013-06-06 00:22:00,75.4,68.8,29.81,ESE,112,0.0,0.0,80,0.00,CLR,,0.00,WeatherDisplay:10.37,2013-06-06 05:22:00,
2013-06-06 00:27:00,75.0,68.4,29.81,ESE,112,0.0,0.0,80,0.00,CLR,,0.00,WeatherDisplay:10.37,2013-06-06 05:27:00,
2013-06-06 00:32:00,74.7,69.2,29.81,ESE,112,0.0,0.0,83,0.00,CLR,,0.00,WeatherDisplay:10.37,2013-06-06 05:32:00,
2013-06-06 00:38:00,74.5,69.0,29.81,ESE,112,0.0,0.0,83,0.00,CLR,,0.00,WeatherDisplay:10.37,2013-06-06 05:38:00,
2013-06-06 00:43:00,74.1,69.7,29.81,ESE,112,0.0,0.0,86,0.00,CLR,,0.00,WeatherDisplay:10.37,2013-06-06 05:43:00,
2013-06-06 00:48:00,73.9,70.5,29.81,ESE,112,0.0,0.0,89,0.00,CLR,,0.00,WeatherDisplay:10.37,2013-06-06 05:48:00,
2013-06-06 00:53:00,73.8,70.3,29.81,ESE,112,0.0,0.0,89,0.00,CLR,,0.00,WeatherDisplay:10.37,2013-06-06 05:53:00,
2013-06-06 00:58:00,73.6,70.8,29.81,ESE,112,0.0,0.0,91,0.00,CLR,,0.00,WeatherDisplay:10.37,2013-06-06 05:58:00,
2013-06-06 01:03:00,73.4,71.6,29.81,ESE,112,0.0,0.0,94,0.00,CLR,,0.00,WeatherDisplay:10.37,2013-06-06 06:03:00,
2013-06-06 01:08:00,73.0,71.2,29.81,ESE,112,0.0,0.0,94,0.00,CLR,,0.00,WeatherDisplay:10.37,2013-06-06 06:08:00,
2013-06-06 01:13:00,73.0,72.1,29.81,ESE,112,0.0,0.0,97,0.00,CLR,,0.00,WeatherDisplay:10.37,2013-06-06 06:13:00,
2013-06-06 01:18:00,73.2,72.3,29.81,ESE,112,0.0,0.0,97,0.00,CLR,,0.00,WeatherDisplay:10.37,2013-06-06 06:18:00,
2013-06-06 01:23:00,73.0,72.1,29.77,ESE,112,0.0,0.0,97,0.00,CLR,,0.00,WeatherDisplay:10.37,2013-06-06 06:23:00,
2013-06-06 01:28:00,73.0,72.1,29.77,ESE,112,0.0,0.0,97,0.00,CLR,,0.00,WeatherDisplay:10.37,2013-06-06 06:28:00,
2013-06-06 01:33:00,72.9,72.0,29.77,ESE,112,0.0,0.0,97,0.00,CLR,,0.00,WeatherDisplay:10.37,2013-06-06 06:33:00,
2013-06-06 01:38:00,72.5,71.6,29.81,ESE,112,0.0,0.0,97,0.00,CLR,,0.00,WeatherDisplay:10.37,2013-06-06 06:38:00,
2013-06-06 01:43:00,72.5,71.6,29.81,ESE,112,0.0,0.0,97,0.00,CLR,,0.00,WeatherDisplay:10.37,2013-06-06 06:43:00,
2013-06-06 01:48:00,72.3,71.4,29.81,ESE,112,0.0,0.0,97,0.00,CLR,,0.00,WeatherDisplay:10.37,2013-06-06 06:48:00,
2013-06-06 01:53:00,72.0,71.1,29.81,ESE,112,0.0,0.0,97,0.00,CLR,,0.00,WeatherDisplay:10.37,2013-06-06 06:53:00,
2013-06-06 01:58:00,71.8,70.9,29.81,ESE,112,0.0,0.0,97,0.00,CLR,,0.00,WeatherDisplay:10.37,2013-06-06 06:58:00,
2013-06-06 02:03:00,71.8,70.9,29.81,ESE,112,0.0,0.0,97,0.00,CLR,,0.00,WeatherDisplay:10.37,2013-06-06 07:03:00,
2013-06-06 02:08:00,71.8,70.9,29.81,ESE,112,0.0,0.0,97,0.00,CLR,,0.00,WeatherDisplay:10.37,2013-06-06 07:08:00,
2013-06-06 02:13:00,71.6,70.7,29.81,ESE,112,0.0,0.0,97,0.00,CLR,,0.00,WeatherDisplay:10.37,2013-06-06 07:13:00,
2013-06-06 02:18:00,71.6,70.7,29.81,ESE,112,0.0,0.0,97,0.00,CLR,,0.00,WeatherDisplay:10.37,2013-06-06 07:18:00,
2013-06-06 02:23:00,71.6,70.7,29.81,ESE,112,0.0,0.0,97,0.00,CLR,,0.00,WeatherDisplay:10.37,2013-06-06 07:23:00,
2013-06-06 02:28:00,71.6,70.7,29.81,ESE,112,0.0,0.0,97,0.00,CLR,,0.00,WeatherDisplay:10.37,2013-06-06 07:28:00,
2013-06-06 02:33:00,71.8,70.9,29.81,ESE,112,0.0,0.0,97,0.00,CLR,,0.00,WeatherDisplay:10.37,2013-06-06 07:33:00,
2013-06-06 02:38:00,71.8,70.9,29.81,ESE,112,0.0,0.0,97,0.00,CLR,,0.00,WeatherDisplay:10.37,2013-06-06 07:38:00,
2013-06-06 02:43:00,71.8,70.9,29.81,ESE,112,0.0,0.0,97,0.00,CLR,,0.00,WeatherDisplay:10.37,2013-06-06 07:43:00,
2013-06-06 02:48:00,71.8,70.9,29.81,NE,45,2.3,2.3,97,0.00,CLR,,0.00,WeatherDisplay:10.37,2013-06-06 07:48:00,
2013-06-06 02:53:00,71.8,70.9,29.81,NE,45,1.2,1.2,97,0.00,CLR,,0.00,WeatherDisplay:10.37,2013-06-06 07:53:00,
2013-06-06 02:58:00,72.0,99.9,29.81,NE,45,2.3,2.3,121,0.00,CLR,,0.00,WeatherDisplay:10.37,2013-06-06 07:58:00,
2013-06-06 03:03:00,72.0,71.1,29.81,NE,45,2.3,2.3,97,0.00,CLR,,0.00,WeatherDisplay:10.37,2013-06-06 08:03:00,
2013-06-06 03:08:00,72.0,99.9,29.81,NE,45,2.3,2.3,115,0.00,CLR,,0.00,WeatherDisplay:10.37,2013-06-06 08:08:00,
2013-06-06 03:14:00,72.0,71.1,29.81,NE,45,0.0,0.0,97,0.00,CLR,,0.00,WeatherDisplay:10.37,2013-06-06 08:14:00,
2013-06-06 03:19:00,72.0,99.9,29.81,NE,45,2.3,2.3,115,0.00,CLR,,0.00,WeatherDisplay:10.37,2013-06-06 08:19:00,
2013-06-06 03:24:00,72.0,71.1,29.81,ENE,68,2.3,2.3,97,0.00,CLR,,0.00,WeatherDisplay:10.37,2013-06-06 08:24:00,
2013-06-06 03:29:00,72.0,71.1,29.81,ENE,68,3.5,3.5,97,0.00,CLR,,0.00,WeatherDisplay:10.37,2013-06-06 08:29:00,
2013-06-06 03:34:00,72.0,71.1,29.81,NE,45,2.3,2.4,97,0.00,CLR,,0.00,WeatherDisplay:10.37,2013-06-06 08:34:00,
2013-06-06 03:39:00,72.1,99.9,29.81,NE,45,3.5,3.5,115,0.00,CLR,,0.00,WeatherDisplay:10.37,2013-06-06 08:39:00,
2013-06-06 03:44:00,72.1,71.2,29.81,NE,45,2.3,2.3,97,0.00,CLR,,0.00,WeatherDisplay:10.37,2013-06-06 08:44:00,
2013-06-06 03:49:00,72.1,71.2,29.81,NE,45,2.3,2.3,97,0.00,CLR,,0.00,WeatherDisplay:10.37,2013-06-06 08:49:00,
2013-06-06 03:54:00,72.0,71.1,29.81,NE,45,2.6,2.6,97,0.00,CLR,,0.00,WeatherDisplay:10.37,2013-06-06 08:54:00,
2013-06-06 03:59:00,72.0,71.1,29.81,ENE,68,2.3,2.3,97,0.00,CLR,,0.00,WeatherDisplay:10.37,2013-06-06 08:59:00,
2013-06-06 04:04:00,71.8,70.9,29.81,NE,45,2.3,2.4,97,0.00,CLR,,0.00,WeatherDisplay:10.37,2013-06-06 09:04:00,
2013-06-06 04:09:00,71.8,70.9,29.81,NE,45,4.6,4.6,97,0.00,CLR,,0.00,WeatherDisplay:10.37,2013-06-06 09:09:00,
2013-06-06 04:14:00,71.8,70.9,29.81,NE,45,4.6,4.6,97,0.00,CLR,,0.00,WeatherDisplay:10.37,2013-06-06 09:14:00,
2013-06-06 04:19:00,71.8,70.9,29.81,ENE,68,3.5,3.5,97,0.00,CLR,,0.00,WeatherDisplay:10.37,2013-06-06 09:19:00,
2013-06-06 04:24:00,71.6,70.7,29.81,NE,45,4.6,4.6,97,0.00,CLR,,0.00,WeatherDisplay:10.37,2013-06-06 09:24:00,
2013-06-06 04:29:00,71.6,70.7,29.81,ENE,68,2.3,2.3,97,0.00,CLR,,0.00,WeatherDisplay:10.37,2013-06-06 09:29:00,
2013-06-06 04:34:00,71.4,70.5,29.81,East,90,2.3,2.3,97,0.00,CLR,,0.00,WeatherDisplay:10.37,2013-06-06 09:34:00,
2013-06-06 04:39:00,71.4,70.5,29.81,NE,45,3.5,3.5,97,0.00,CLR,,0.00,WeatherDisplay:10.37,2013-06-06 09:39:00,
2013-06-06 04:44:00,71.2,70.3,29.81,ENE,68,3.5,3.5,97,0.00,CLR,,0.00,WeatherDisplay:10.37,2013-06-06 09:44:00,
2013-06-06 04:49:00,71.2,70.3,29.81,ENE,68,2.3,2.3,97,0.00,CLR,,0.00,WeatherDisplay:10.37,2013-06-06 09:49:00,
2013-06-06 04:54:00,71.2,70.3,29.81,NE,45,2.3,2.3,97,0.00,CLR,,0.00,WeatherDisplay:10.37,2013-06-06 09:54:00,
2013-06-06 04:59:00,71.2,70.3,29.81,NE,45,2.3,2.3,97,0.00,CLR,,0.00,WeatherDisplay:10.37,2013-06-06 09:59:00,
2013-06-06 05:04:00,71.1,70.2,29.81,NE,45,0.0,0.0,97,0.00,CLR,,0.00,WeatherDisplay:10.37,2013-06-06 10:04:00,
2013-06-06 05:09:00,70.9,70.0,29.81,NE,45,0.0,0.0,97,0.00,CLR,,0.00,WeatherDisplay:10.37,2013-06-06 10:09:00,
2013-06-06 05:14:00,71.1,70.2,29.81,NNE,22,1.2,2.0,97,0.00,CLR,,0.00,WeatherDisplay:10.37,2013-06-06 10:14:00,
2013-06-06 05:19:00,71.4,70.5,29.81,ENE,68,2.3,2.3,97,0.00,CLR,,0.00,WeatherDisplay:10.37,2013-06-06 10:19:00,
2013-06-06 05:24:00,71.6,70.7,29.81,NE,45,2.3,0.0,97,0.00,CLR,,0.00,WeatherDisplay:10.37,2013-06-06 10:24:00,
2013-06-06 05:29:00,71.6,70.7,29.81,ENE,68,2.3,2.3,97,0.00,CLR,,0.00,WeatherDisplay:10.37,2013-06-06 10:29:00,
2013-06-06 05:34:00,71.8,71.8,29.81,NE,45,4.6,4.6,100,0.00,CLR,,0.00,WeatherDisplay:10.37,2013-06-06 10:34:00,
2013-06-06 05:39:00,71.8,71.8,29.81,NE,45,2.3,2.3,100,0.00,CLR,,0.00,WeatherDisplay:10.37,2013-06-06 10:39:00,
2013-06-06 05:44:00,72.0,72.0,29.81,East,90,2.3,2.3,100,0.00,CLR,,0.00,WeatherDisplay:10.37,2013-06-06 10:44:00,
2013-06-06 05:49:00,72.0,72.0,29.81,NE,45,0.0,2.0,100,0.00,CLR,,0.00,WeatherDisplay:10.37,2013-06-06 10:49:00,
2013-06-06 05:54:00,72.1,72.1,29.81,NE,45,2.3,2.9,100,0.00,CLR,,0.00,WeatherDisplay:10.37,2013-06-06 10:54:00,
2013-06-06 05:59:00,72.3,72.3,29.81,NNE,22,3.5,3.5,100,0.00,CLR,,0.00,WeatherDisplay:10.37,2013-06-06 10:59:00,
2013-06-06 06:04:00,72.3,72.3,29.81,NE,45,2.6,2.6,100,0.00,SCT,,0.00,WeatherDisplay:10.37,2013-06-06 11:04:00,
2013-06-06 06:09:00,72.5,72.5,29.81,NNE,22,3.5,3.5,100,0.00,SCT,,0.00,WeatherDisplay:10.37,2013-06-06 11:09:00,
2013-06-06 06:14:00,72.5,72.5,29.81,NNE,22,1.2,0.0,100,0.00,BKN,,0.00,WeatherDisplay:10.37,2013-06-06 11:14:00,
2013-06-06 06:19:00,72.7,72.7,29.81,NE,45,2.3,2.3,100,0.00,BKN,,0.00,WeatherDisplay:10.37,2013-06-06 11:19:00,
2013-06-06 06:24:00,72.9,72.9,29.83,NNE,22,2.3,2.3,100,0.00,BKN,,0.00,WeatherDisplay:10.37,2013-06-06 11:24:00,
2013-06-06 06:30:00,72.9,72.9,29.83,NNE,22,2.3,2.3,100,0.00,BKN,,0.00,WeatherDisplay:10.37,2013-06-06 11:30:00,
2013-06-06 06:35:00,72.9,72.9,29.83,NE,45,3.5,3.5,100,0.00,BKN,,0.00,WeatherDisplay:10.37,2013-06-06 11:35:00,
2013-06-06 06:40:00,73.0,73.0,29.83,NE,45,0.0,0.0,100,0.00,BKN,,0.00,WeatherDisplay:10.37,2013-06-06 11:40:00,
2013-06-06 06:45:00,73.0,73.0,29.83,North,0,2.3,2.3,100,0.00,BKN,,0.00,WeatherDisplay:10.37,2013-06-06 11:45:00,
2013-06-06 06:50:00,73.2,73.2,29.83,NW,315,3.5,3.5,100,0.00,BKN,,0.00,WeatherDisplay:10.37,2013-06-06 11:50:00,
2013-06-06 06:55:00,73.2,73.2,29.86,NW,315,1.2,0.0,100,0.00,OVC,,0.00,WeatherDisplay:10.37,2013-06-06 11:55:00,
2013-06-06 07:00:00,73.2,73.2,29.86,NW,315,1.2,1.2,100,0.00,OVC,,0.00,WeatherDisplay:10.37,2013-06-06 12:00:00,
2013-06-06 07:05:00,73.2,73.2,29.86,NW,315,0.0,0.0,100,0.00,OVC,,0.00,WeatherDisplay:10.37,2013-06-06 12:05:00,
2013-06-06 07:10:00,73.2,73.2,29.83,NW,315,1.2,0.0,100,0.00,OVC,,0.00,WeatherDisplay:10.37,2013-06-06 12:10:00,
2013-06-06 07:15:00,73.2,73.2,29.83,NW,315,2.3,2.3,100,0.00,OVC,,0.00,WeatherDisplay:10.37,2013-06-06 12:15:00,
2013-06-06 07:20:00,73.4,73.4,29.83,NW,315,2.3,2.3,100,0.00,OVC,,0.00,WeatherDisplay:10.37,2013-06-06 12:20:00,
2013-06-06 07:25:00,73.4,73.4,29.86,NW,315,2.3,0.0,100,0.00,OVC,,0.00,WeatherDisplay:10.37,2013-06-06 12:25:00,
2013-06-06 07:30:00,73.4,73.4,29.86,NW,315,3.5,3.5,100,0.00,OVC,,0.00,WeatherDisplay:10.37,2013-06-06 12:30:00,
2013-06-06 07:35:00,73.6,73.6,29.86,NW,315,2.3,0.0,100,0.00,OVC,,0.00,WeatherDisplay:10.37,2013-06-06 12:35:00,
2013-06-06 07:40:00,73.8,73.8,29.86,North,0,2.3,2.3,100,0.00,OVC,,0.00,WeatherDisplay:10.37,2013-06-06 12:40:00,
2013-06-06 07:45:00,73.9,73.9,29.86,NW,315,3.5,3.5,100,0.00,OVC,,0.00,WeatherDisplay:10.37,2013-06-06 12:45:00,
2013-06-06 07:50:00,73.9,73.9,29.86,NW,315,3.5,3.5,100,0.00,OVC,,0.00,WeatherDisplay:10.37,2013-06-06 12:50:00,
2013-06-06 07:55:00,74.1,74.1,29.86,NE,45,1.2,1.2,100,0.00,SCT,,0.00,WeatherDisplay:10.37,2013-06-06 12:55:00,
2013-06-06 08:00:00,74.5,74.5,29.86,NE,45,3.3,3.3,100,0.00,SCT,,0.00,WeatherDisplay:10.37,2013-06-06 13:00:00,
2013-06-06 08:05:00,74.8,74.8,29.86,NE,45,1.2,0.0,100,0.00,FEW,,0.00,WeatherDisplay:10.37,2013-06-06 13:05:00,
2013-06-06 08:10:00,75.2,75.2,29.86,North,0,2.3,2.3,100,0.00,FEW,,0.00,WeatherDisplay:10.37,2013-06-06 13:10:00,
2013-06-06 08:15:00,75.2,75.2,29.86,NNW,338,3.5,3.5,100,0.00,FEW,,0.00,WeatherDisplay:10.37,2013-06-06 13:15:00,
2013-06-06 08:20:00,75.6,75.6,29.86,NE,45,2.3,2.3,100,0.00,FEW,,0.00,WeatherDisplay:10.37,2013-06-06 13:20:00,
2013-06-06 08:25:00,75.9,75.9,29.86,NE,45,5.8,5.8,100,0.00,FEW,,0.00,WeatherDisplay:10.37,2013-06-06 13:25:00,
2013-06-06 08:30:00,76.1,76.1,29.86,NE,45,4.6,4.6,100,0.00,FEW,,0.00,WeatherDisplay:10.37,2013-06-06 13:30:00,
2013-06-06 08:35:00,76.5,76.5,29.86,ENE,68,2.3,2.3,100,0.00,FEW,,0.00,WeatherDisplay:10.37,2013-06-06 13:35:00,
2013-06-06 08:40:00,76.8,76.8,29.83,NE,45,4.6,4.6,100,0.00,FEW,,0.00,WeatherDisplay:10.37,2013-06-06 13:40:00,
2013-06-06 08:45:00,77.5,75.7,29.83,NE,45,4.6,4.6,94,0.00,FEW,,0.00,WeatherDisplay:10.37,2013-06-06 13:45:00,
2013-06-06 08:50:00,77.7,74.9,29.83,ESE,112,4.6,4.6,91,0.00,FEW,,0.00,WeatherDisplay:10.37,2013-06-06 13:50:00,
2013-06-06 08:55:00,78.1,75.2,29.86,East,90,3.5,3.5,91,0.00,FEW,,0.00,WeatherDisplay:10.37,2013-06-06 13:55:00,
2013-06-06 09:00:00,78.6,75.1,29.86,East,90,5.8,5.8,89,0.00,FEW,,0.00,WeatherDisplay:10.37,2013-06-06 14:00:00,
2013-06-06 09:05:00,78.6,74.1,29.86,SSE,158,3.5,3.5,86,0.00,SCT,,0.00,WeatherDisplay:10.37,2013-06-06 14:05:00,
2013-06-06 09:10:00,79.3,73.7,29.86,NNE,22,3.5,3.5,83,0.00,SCT,,0.00,WeatherDisplay:10.37,2013-06-06 14:10:00,
2013-06-06 09:15:00,79.9,73.2,29.86,ESE,112,3.5,3.5,80,0.00,BKN,,0.00,WeatherDisplay:10.37,2013-06-06 14:15:00,
2013-06-06 09:20:00,80.1,72.2,29.86,ENE,68,3.5,3.5,77,0.00,BKN,,0.00,WeatherDisplay:10.37,2013-06-06 14:20:00,
2013-06-06 09:25:00,80.2,72.4,29.86,East,90,2.3,2.3,77,0.00,OVC,,0.00,WeatherDisplay:10.37,2013-06-06 14:25:00,
2013-06-06 09:30:00,80.2,71.2,29.86,East,90,2.3,2.3,74,0.00,OVC,,0.00,WeatherDisplay:10.37,2013-06-06 14:30:00,
2013-06-06 09:35:00,80.2,71.2,29.86,ESE,112,0.0,0.0,74,0.00,OVC,,0.00,WeatherDisplay:10.37,2013-06-06 14:35:00,
2013-06-06 09:40:00,80.1,72.2,29.89,ESE,112,1.2,1.4,77,0.00,OVC,,0.00,WeatherDisplay:10.37,2013-06-06 14:40:00,
2013-06-06 09:45:00,80.2,71.2,29.89,ESE,112,1.2,1.4,74,0.00,OVC,,0.00,WeatherDisplay:10.37,2013-06-06 14:45:00,
2013-06-06 09:50:00,80.8,71.7,29.89,NE,45,1.2,0.0,74,0.00,OVC,,0.00,WeatherDisplay:10.37,2013-06-06 14:50:00,
2013-06-06 09:55:00,82.4,72.0,29.89,NE,45,1.2,0.0,71,0.00,SCT,,0.00,WeatherDisplay:10.37,2013-06-06 14:55:00,
2013-06-06 10:00:00,83.3,68.9,29.89,WSW,248,3.5,3.5,62,0.00,SCT,,0.00,WeatherDisplay:10.37,2013-06-06 15:00:00,
2013-06-06 10:05:00,82.8,68.4,29.89,NW,315,3.5,3.5,62,0.00,BKN,,0.00,WeatherDisplay:10.37,2013-06-06 15:05:00,
2013-06-06 10:10:00,84.0,69.6,29.89,East,90,2.3,0.0,62,0.00,BKN,,0.00,WeatherDisplay:10.37,2013-06-06 15:10:00,
2013-06-06 10:15:00,84.6,70.1,29.89,NNE,22,5.8,5.8,62,0.00,BKN,,0.00,WeatherDisplay:10.37,2013-06-06 15:15:00,
2013-06-06 10:20:00,83.8,69.4,29.89,North,0,3.5,3.5,62,0.00,BKN,,0.00,WeatherDisplay:10.37,2013-06-06 15:20:00,
2013-06-06 10:25:00,83.3,68.9,29.89,WSW,248,4.6,4.6,62,0.00,BKN,,0.00,WeatherDisplay:10.37,2013-06-06 15:25:00,
2013-06-06 10:30:00,83.3,65.4,29.89,East,90,2.3,2.3,55,0.00,BKN,,0.00,WeatherDisplay:10.37,2013-06-06 15:30:00,
2013-06-06 10:35:00,83.7,65.8,29.89,WNW,292,3.5,3.5,55,0.00,BKN,,0.00,WeatherDisplay:10.37,2013-06-06 15:35:00,
2013-06-06 10:40:00,84.2,64.1,29.89,ENE,68,0.0,2.4,51,0.00,BKN,,0.00,WeatherDisplay:10.37,2013-06-06 15:40:00,
2013-06-06 10:45:00,84.9,64.8,29.89,NE,45,3.5,3.5,51,0.00,BKN,,0.00,WeatherDisplay:10.37,2013-06-06 15:45:00,
2013-06-06 10:50:00,85.8,65.6,29.89,ESE,112,1.2,1.2,51,0.00,BKN,,0.00,WeatherDisplay:10.37,2013-06-06 15:50:00,
2013-06-06 10:55:00,86.0,65.8,29.89,ENE,68,4.6,4.6,51,0.00,BKN,,0.00,WeatherDisplay:10.37,2013-06-06 15:55:00,
2013-06-06 11:00:00,85.8,65.6,29.89,NE,45,2.3,2.3,51,0.00,BKN,,0.00,WeatherDisplay:10.37,2013-06-06 16:00:00,
2013-06-06 11:05:00,86.4,66.1,29.89,NE,45,4.6,4.6,51,0.00,SCT,,0.00,WeatherDisplay:10.37,2013-06-06 16:05:00,
2013-06-06 11:10:00,86.7,66.4,29.89,NNE,22,5.8,5.8,51,0.00,SCT,,0.00,WeatherDisplay:10.37,2013-06-06 16:10:00,
2013-06-06 11:15:00,86.7,62.2,29.89,NE,45,2.0,2.0,44,0.00,SCT,,0.00,WeatherDisplay:10.37,2013-06-06 16:15:00,
2013-06-06 11:20:00,86.5,62.0,29.89,North,0,4.6,4.6,44,0.00,SCT,,0.00,WeatherDisplay:10.37,2013-06-06 16:20:00,
2013-06-06 11:25:00,85.8,61.4,29.86,NNW,338,4.6,4.6,44,0.00,SCT,,0.00,WeatherDisplay:10.37,2013-06-06 16:25:00,
2013-06-06 11:30:00,86.7,62.2,29.86,ESE,112,3.1,3.1,44,0.00,SCT,,0.00,WeatherDisplay:10.37,2013-06-06 16:30:00,
2013-06-06 11:35:00,87.3,62.7,29.86,NE,45,5.8,5.8,44,0.00,SCT,,0.00,WeatherDisplay:10.37,2013-06-06 16:35:00,
2013-06-06 11:40:00,87.1,62.5,29.83,East,90,3.5,3.5,44,0.00,SCT,,0.00,WeatherDisplay:10.37,2013-06-06 16:40:00,
2013-06-06 11:45:00,88.0,63.3,29.83,NNE,22,5.8,6.4,44,0.00,SCT,,0.00,WeatherDisplay:10.37,2013-06-06 16:45:00,
2013-06-06 11:50:00,88.3,63.7,29.83,ESE,112,4.6,4.6,44,0.00,SCT,,0.00,WeatherDisplay:10.37,2013-06-06 16:50:00,
2013-06-06 11:55:00,87.1,62.5,29.83,East,90,5.8,5.8,44,0.00,SCT,,0.00,WeatherDisplay:10.37,2013-06-06 16:55:00,
2013-06-06 12:00:00,86.9,62.4,29.83,NE,45,4.6,4.6,44,0.00,FEW,,0.00,WeatherDisplay:10.37,2013-06-06 17:00:00,
2013-06-06 12:05:00,87.3,62.7,29.83,NE,45,3.5,3.5,44,0.00,FEW,,0.00,WeatherDisplay:10.37,2013-06-06 17:05:00,
2013-06-06 12:10:00,87.6,63.0,29.86,NNE,22,3.5,3.5,44,0.00,FEW,,0.00,WeatherDisplay:10.37,2013-06-06 17:10:00,
2013-06-06 12:15:00,88.0,63.3,29.86,NE,45,4.6,4.6,44,0.00,FEW,,0.00,WeatherDisplay:10.37,2013-06-06 17:15:00,
2013-06-06 12:20:00,87.3,62.7,29.86,NW,315,2.3,2.3,44,0.00,FEW,,0.00,WeatherDisplay:10.37,2013-06-06 17:20:00,
2013-06-06 12:25:00,87.1,62.5,29.83,WSW,248,2.6,2.6,44,0.00,FEW,,0.00,WeatherDisplay:10.37,2013-06-06 17:25:00,
2013-06-06 12:30:00,87.1,62.5,29.83,WSW,248,2.3,2.3,44,0.00,FEW,,0.00,WeatherDisplay:10.37,2013-06-06 17:30:00,
2013-06-06 12:35:00,88.2,63.5,29.83,NW,315,3.5,3.5,44,0.00,FEW,,0.00,WeatherDisplay:10.37,2013-06-06 17:35:00,
2013-06-06 12:40:00,89.1,64.3,29.86,ESE,112,4.6,4.6,44,0.00,FEW,,0.00,WeatherDisplay:10.37,2013-06-06 17:40:00,
2013-06-06 12:45:00,89.1,64.3,29.86,ESE,112,2.3,3.1,44,0.00,FEW,,0.00,WeatherDisplay:10.37,2013-06-06 17:45:00,
2013-06-06 12:50:00,89.2,64.5,29.86,SE,135,5.8,5.8,44,0.00,FEW,,0.00,WeatherDisplay:10.37,2013-06-06 17:50:00,
2013-06-06 12:55:00,90.0,65.1,29.86,East,90,3.5,3.5,44,0.00,FEW,,0.00,WeatherDisplay:10.37,2013-06-06 17:55:00,
2013-06-06 13:00:00,90.0,65.1,29.86,NNE,22,4.6,4.6,44,0.00,SCT,,0.00,WeatherDisplay:10.37,2013-06-06 18:00:00,
2013-06-06 13:05:00,89.8,65.0,29.86,ENE,68,5.8,5.8,44,0.00,SCT,,0.00,WeatherDisplay:10.37,2013-06-06 18:05:00,
2013-06-06 13:10:00,89.4,64.6,29.86,WNW,292,2.3,2.3,44,0.00,SCT,,0.00,WeatherDisplay:10.37,2013-06-06 18:10:00,
2013-06-06 13:15:00,88.9,64.1,29.86,SSW,202,3.5,3.5,44,0.00,SCT,,0.00,WeatherDisplay:10.37,2013-06-06 18:15:00,
2013-06-06 13:20:00,88.9,64.1,29.86,East,90,2.3,2.4,44,0.00,SCT,,0.00,WeatherDisplay:10.37,2013-06-06 18:20:00,
2013-06-06 13:25:00,89.2,64.5,29.86,ESE,112,3.5,3.5,44,0.00,SCT,,0.00,WeatherDisplay:10.37,2013-06-06 18:25:00,
2013-06-06 13:30:00,90.1,65.3,29.86,SE,135,3.5,3.5,44,0.00,SCT,,0.00,WeatherDisplay:10.37,2013-06-06 18:30:00,
2013-06-06 13:35:00,90.3,65.4,29.86,East,90,3.5,3.5,44,0.00,SCT,,0.00,WeatherDisplay:10.37,2013-06-06 18:35:00,
2013-06-06 13:40:00,90.3,65.4,29.86,ESE,112,3.5,3.5,44,0.00,SCT,,0.00,WeatherDisplay:10.37,2013-06-06 18:40:00,
2013-06-06 13:45:00,90.7,65.8,29.86,WNW,292,3.5,3.5,44,0.00,SCT,,0.00,WeatherDisplay:10.37,2013-06-06 18:45:00,
2013-06-06 13:50:00,91.0,66.1,29.86,ESE,112,2.3,2.3,44,0.00,SCT,,0.00,WeatherDisplay:10.37,2013-06-06 18:50:00,
2013-06-06 13:55:00,90.7,65.8,29.86,SE,135,4.6,4.6,44,0.00,SCT,,0.00,WeatherDisplay:10.37,2013-06-06 18:55:00,
2013-06-06 14:00:00,90.9,65.9,29.86,NE,45,3.5,3.5,44,0.00,FEW,,0.00,WeatherDisplay:10.37,2013-06-06 19:00:00,
2013-06-06 14:05:00,91.6,66.6,29.86,WSW,248,2.3,2.3,44,0.00,FEW,,0.00,WeatherDisplay:10.37,2013-06-06 19:05:00,
2013-06-06 14:10:00,90.7,99.9,29.86,SW,225,5.9,5.9,136,0.00,FEW,,0.00,WeatherDisplay:10.37,2013-06-06 19:10:00,
2013-06-06 14:22:00,92.5,67.4,29.86,SW,225,3.5,3.5,44,0.00,FEW,,0.00,WeatherDisplay:10.37,2013-06-06 19:22:00,
2013-06-06 14:27:00,93.0,67.9,29.86,WSW,248,3.5,3.5,44,0.00,FEW,,0.00,WeatherDisplay:10.37,2013-06-06 19:27:00,
2013-06-06 14:33:00,93.0,67.9,29.86,NE,45,2.3,2.3,44,0.00,FEW,,0.00,WeatherDisplay:10.37,2013-06-06 19:33:00,
2013-06-06 14:34:00,93.0,67.9,29.86,SE,135,2.3,2.3,44,0.00,FEW,,0.00,WeatherDisplay:10.37,2013-06-06 19:34:00,
2013-06-06 14:41:00,93.2,68.0,29.83,NE,45,1.4,1.4,44,0.00,FEW,,0.00,WeatherDisplay:10.37,2013-06-06 19:41:00,
2013-06-06 14:46:00,93.9,68.7,29.83,SW,225,3.5,3.5,44,0.00,FEW,,0.00,WeatherDisplay:10.37,2013-06-06 19:46:00,
2013-06-06 14:52:00,94.3,69.0,29.83,NE,45,2.3,2.4,44,0.00,FEW,,0.00,WeatherDisplay:10.37,2013-06-06 19:52:00,
2013-06-06 14:57:00,93.9,68.7,29.83,SE,135,1.6,1.6,44,0.00,FEW,,0.00,WeatherDisplay:10.37,2013-06-06 19:57:00,
2013-06-06 15:02:00,94.1,68.9,29.83,SW,225,3.5,3.5,44,0.00,CLR,,0.00,WeatherDisplay:10.37,2013-06-06 20:02:00,
2013-06-06 15:07:00,93.7,68.5,29.83,WNW,292,3.5,3.5,44,0.00,CLR,,0.00,WeatherDisplay:10.37,2013-06-06 20:07:00,
2013-06-06 15:12:00,93.6,68.4,29.83,NW,315,2.3,2.4,44,0.00,CLR,,0.00,WeatherDisplay:10.37,2013-06-06 20:12:00,
2013-06-06 15:19:00,93.4,68.2,29.83,WSW,248,5.8,5.8,44,0.00,CLR,,0.00,WeatherDisplay:10.37,2013-06-06 20:19:00,
2013-06-06 15:49:00,92.5,67.4,29.77,WNW,292,5.8,5.8,44,0.00,CLR,,0.00,WeatherDisplay:10.37,2013-06-06 20:49:00,
2013-06-06 15:54:00,93.9,68.7,29.77,NW,315,3.5,3.5,44,0.00,CLR,,0.00,WeatherDisplay:10.37,2013-06-06 20:54:00,
2013-06-06 16:02:00,95.2,99.9,29.77,NNE,22,4.6,4.6,133,0.00,CLR,,0.00,WeatherDisplay:10.37,2013-06-06 21:02:00,
2013-06-06 16:07:00,95.0,69.7,29.81,NE,45,4.6,4.6,44,0.00,CLR,,0.00,WeatherDisplay:10.37,2013-06-06 21:07:00,
2013-06-06 16:12:00,95.5,70.2,29.81,WNW,292,4.6,4.6,44,0.00,CLR,,0.00,WeatherDisplay:10.37,2013-06-06 21:12:00,
2013-06-06 16:17:00,94.8,69.5,29.81,WSW,248,3.5,3.5,44,0.00,CLR,,0.00,WeatherDisplay:10.37,2013-06-06 21:17:00,
2013-06-06 16:22:00,95.0,69.7,29.81,ESE,112,3.5,3.8,44,0.00,CLR,,0.00,WeatherDisplay:10.37,2013-06-06 21:22:00,
2013-06-06 16:28:00,94.6,69.3,29.81,East,90,2.4,2.4,44,0.00,CLR,,0.00,WeatherDisplay:10.37,2013-06-06 21:28:00,
2013-06-06 16:33:00,94.8,69.5,29.81,NE,45,3.5,3.5,44,0.00,CLR,,0.00,WeatherDisplay:10.37,2013-06-06 21:33:00,
2013-06-06 16:38:00,95.0,69.7,29.81,ENE,68,6.9,6.9,44,0.00,CLR,,0.00,WeatherDisplay:10.37,2013-06-06 21:38:00,
2013-06-06 16:43:00,95.4,70.0,29.81,NE,45,1.2,1.2,44,0.00,CLR,,0.00,WeatherDisplay:10.37,2013-06-06 21:43:00,
2013-06-06 16:48:00,95.4,70.0,29.81,WNW,292,2.3,2.3,44,0.00,CLR,,0.00,WeatherDisplay:10.37,2013-06-06 21:48:00,
2013-06-06 16:53:00,95.7,70.3,29.77,ESE,112,3.5,3.5,44,0.00,CLR,,0.00,WeatherDisplay:10.37,2013-06-06 21:53:00,
2013-06-06 16:58:00,95.7,70.3,29.77,ESE,112,1.2,1.2,44,0.00,CLR,,0.00,WeatherDisplay:10.37,2013-06-06 21:58:00,
2013-06-06 17:03:00,95.7,70.3,29.77,WNW,292,2.3,2.6,44,0.00,CLR,,0.00,WeatherDisplay:10.37,2013-06-06 22:03:00,
2013-06-06 17:08:00,95.2,69.8,29.77,WNW,292,4.6,4.6,44,0.00,CLR,,0.00,WeatherDisplay:10.37,2013-06-06 22:08:00,
2013-06-06 17:13:00,94.6,69.3,29.77,West,270,4.6,4.6,44,0.00,CLR,,0.00,WeatherDisplay:10.37,2013-06-06 22:13:00,
2013-06-06 17:18:00,95.0,69.7,29.77,NW,315,5.8,5.8,44,0.00,CLR,,0.00,WeatherDisplay:10.37,2013-06-06 22:18:00,
2013-06-06 17:23:00,95.0,69.7,29.77,NW,315,4.6,4.6,44,0.00,CLR,,0.00,WeatherDisplay:10.37,2013-06-06 22:23:00,
2013-06-06 17:28:00,95.0,69.7,29.77,NE,45,3.5,3.5,44,0.00,CLR,,0.00,WeatherDisplay:10.37,2013-06-06 22:28:00,
2013-06-06 17:33:00,95.5,70.2,29.77,NE,45,3.5,4.9,44,0.00,CLR,,0.00,WeatherDisplay:10.37,2013-06-06 22:33:00,
2013-06-06 17:38:00,95.0,69.7,29.77,East,90,2.3,2.3,44,0.00,CLR,,0.00,WeatherDisplay:10.37,2013-06-06 22:38:00,
2013-06-06 17:43:00,95.2,69.8,29.77,ENE,68,5.8,5.8,44,0.00,CLR,,0.00,WeatherDisplay:10.37,2013-06-06 22:43:00,
2013-06-06 17:48:00,95.5,70.2,29.77,NE,45,3.8,3.8,44,0.00,CLR,,0.00,WeatherDisplay:10.37,2013-06-06 22:48:00,
2013-06-06 17:53:00,96.6,71.1,29.77,North,0,1.2,1.2,44,0.00,CLR,,0.00,WeatherDisplay:10.37,2013-06-06 22:53:00,
2013-06-06 17:58:00,96.8,71.3,29.77,NE,45,2.3,2.3,44,0.00,CLR,,0.00,WeatherDisplay:10.37,2013-06-06 22:58:00,
2013-06-06 18:03:00,96.8,71.3,29.77,WNW,292,2.3,2.3,44,0.00,CLR,,0.00,WeatherDisplay:10.37,2013-06-06 23:03:00,
2013-06-06 18:08:00,97.0,71.5,29.75,NE,45,3.5,3.5,44,0.00,CLR,,0.00,WeatherDisplay:10.37,2013-06-06 23:08:00,
2013-06-06 18:14:00,96.6,71.1,29.75,ESE,112,2.3,2.3,44,0.00,CLR,,0.00,WeatherDisplay:10.37,2013-06-06 23:14:00,
2013-06-06 18:19:00,96.3,70.8,29.75,NE,45,4.6,4.6,44,0.00,CLR,,0.00,WeatherDisplay:10.37,2013-06-06 23:19:00,
2013-06-06 18:24:00,95.5,70.2,29.75,NE,45,4.7,4.7,44,0.00,CLR,,0.00,WeatherDisplay:10.37,2013-06-06 23:24:00,
2013-06-06 18:29:00,94.5,69.2,29.75,NW,315,2.3,2.4,44,0.00,CLR,,0.00,WeatherDisplay:10.37,2013-06-06 23:29:00,
2013-06-06 18:34:00,93.6,68.4,29.75,NW,315,0.0,0.0,44,0.00,CLR,,0.00,WeatherDisplay:10.37,2013-06-06 23:34:00,
2013-06-06 18:39:00,93.4,68.2,29.75,North,0,2.3,2.4,44,0.00,CLR,,0.00,WeatherDisplay:10.37,2013-06-06 23:39:00,
2013-06-06 18:44:00,93.0,67.9,29.75,NW,315,2.3,0.0,44,0.00,CLR,,0.00,WeatherDisplay:10.37,2013-06-06 23:44:00,
2013-06-06 18:49:00,92.7,67.6,29.75,WNW,292,1.2,0.0,44,0.00,CLR,,0.00,WeatherDisplay:10.37,2013-06-06 23:49:00,
2013-06-06 18:54:00,92.3,67.2,29.75,NE,45,2.3,2.3,44,0.00,CLR,,0.00,WeatherDisplay:10.37,2013-06-06 23:54:00,
2013-06-06 18:59:00,92.5,67.4,29.75,WNW,292,2.3,2.3,44,0.00,CLR,,0.00,WeatherDisplay:10.37,2013-06-06 23:59:00,
2013-06-06 19:04:00,93.4,68.2,29.75,ENE,68,4.6,4.6,44,0.00,CLR,,0.00,WeatherDisplay:10.37,2013-06-07 00:04:00,
2013-06-06 19:09:00,93.0,67.9,29.75,North,0,2.3,2.6,44,0.00,CLR,,0.00,WeatherDisplay:10.37,2013-06-07 00:09:00,
2013-06-06 19:14:00,92.3,67.2,29.75,NNE,22,1.2,1.2,44,0.00,CLR,,0.00,WeatherDisplay:10.37,2013-06-07 00:14:00,
2013-06-06 19:19:00,92.1,67.1,29.75,WNW,292,2.3,2.4,44,0.00,CLR,,0.00,WeatherDisplay:10.37,2013-06-07 00:19:00,
2013-06-06 19:24:00,91.8,66.7,29.75,NNE,22,2.3,2.3,44,0.00,CLR,,0.00,WeatherDisplay:10.37,2013-06-07 00:24:00,
2013-06-06 19:29:00,91.2,66.3,29.75,WNW,292,1.2,2.0,44,0.00,CLR,,0.00,WeatherDisplay:10.37,2013-06-07 00:29:00,
2013-06-06 19:34:00,90.9,65.9,29.75,NW,315,2.3,2.4,44,0.00,CLR,,0.00,WeatherDisplay:10.37,2013-06-07 00:34:00,
2013-06-06 19:39:00,90.5,65.6,29.75,NW,315,2.3,2.3,44,0.00,CLR,,0.00,WeatherDisplay:10.37,2013-06-07 00:39:00,
2013-06-06 19:44:00,90.3,65.4,29.75,NW,315,2.3,2.3,44,0.00,CLR,,0.00,WeatherDisplay:10.37,2013-06-07 00:44:00,
2013-06-06 19:49:00,90.1,65.3,29.75,NW,315,2.3,2.3,44,0.00,CLR,,0.00,WeatherDisplay:10.37,2013-06-07 00:49:00,
2013-06-06 19:54:00,90.9,65.9,29.75,NNE,22,3.5,3.5,44,0.00,CLR,,0.00,WeatherDisplay:10.37,2013-06-07 00:54:00,
2013-06-06 19:59:00,89.6,64.8,29.75,NE,45,2.3,2.3,44,0.00,CLR,,0.00,WeatherDisplay:10.37,2013-06-07 00:59:00,
2013-06-06 20:04:00,89.2,64.5,29.75,NE,45,2.3,2.3,44,0.00,CLR,,0.00,WeatherDisplay:10.37,2013-06-07 01:04:00,
2013-06-06 20:09:00,88.5,63.8,29.75,ENE,68,3.5,3.5,44,0.00,CLR,,0.00,WeatherDisplay:10.37,2013-06-07 01:09:00,
2013-06-06 20:14:00,88.0,63.3,29.75,NE,45,3.5,3.5,44,0.00,CLR,,0.00,WeatherDisplay:10.37,2013-06-07 01:14:00,
2013-06-06 20:19:00,87.4,62.8,29.75,NNE,22,1.2,0.0,44,0.00,CLR,,0.00,WeatherDisplay:10.37,2013-06-07 01:19:00,
2013-06-06 20:29:00,86.4,61.9,29.77,NE,45,1.2,0.0,44,0.00,CLR,,0.00,WeatherDisplay:10.37,2013-06-07 01:29:00,
2013-06-06 20:34:00,85.6,61.2,29.77,NNE,22,0.0,0.0,44,0.00,CLR,,0.00,WeatherDisplay:10.37,2013-06-07 01:34:00,
2013-06-06 20:39:00,84.9,60.6,29.77,NE,45,0.0,0.9,44,0.00,CLR,,0.00,WeatherDisplay:10.37,2013-06-07 01:39:00,
2013-06-06 20:44:00,84.4,60.1,29.77,NNE,22,2.3,2.3,44,0.00,CLR,,0.00,WeatherDisplay:10.37,2013-06-07 01:44:00,
2013-06-06 20:49:00,83.8,59.6,29.77,North,0,0.0,0.0,44,0.00,CLR,,0.00,WeatherDisplay:10.37,2013-06-07 01:49:00,
2013-06-06 20:54:00,83.5,59.3,29.77,North,0,1.2,0.0,44,0.00,CLR,,0.00,WeatherDisplay:10.37,2013-06-07 01:54:00,
2013-06-06 20:59:00,82.8,58.6,29.77,NE,45,0.0,0.0,44,0.00,CLR,,0.00,WeatherDisplay:10.37,2013-06-07 01:59:00,
2013-06-06 21:05:00,82.4,58.3,29.77,NE,45,0.0,0.0,44,0.00,CLR,,0.00,WeatherDisplay:10.37,2013-06-07 02:05:00,
2013-06-06 21:10:00,82.0,58.0,29.77,NE,45,0.0,0.0,44,0.00,CLR,,0.00,WeatherDisplay:10.37,2013-06-07 02:10:00,
2013-06-06 21:15:00,81.5,59.9,29.77,NE,45,0.0,0.0,48,0.00,CLR,,0.00,WeatherDisplay:10.37,2013-06-07 02:15:00,
2013-06-06 21:20:00,81.3,59.8,29.77,NE,45,0.0,0.0,48,0.00,CLR,,0.00,WeatherDisplay:10.37,2013-06-07 02:20:00,
2013-06-06 21:25:00,81.0,59.4,29.77,NE,45,1.2,0.0,48,0.00,CLR,,0.00,WeatherDisplay:10.37,2013-06-07 02:25:00,
2013-06-06 21:30:00,80.8,59.3,29.77,NE,45,0.0,0.0,48,0.00,CLR,,0.00,WeatherDisplay:10.37,2013-06-07 02:30:00,
2013-06-06 21:35:00,80.4,58.9,29.77,NE,45,0.0,0.0,48,0.00,CLR,,0.00,WeatherDisplay:10.37,2013-06-07 02:35:00,
2013-06-06 21:40:00,80.4,58.9,29.81,NE,45,0.0,0.0,48,0.00,CLR,,0.00,WeatherDisplay:10.37,2013-06-07 02:40:00,
2013-06-06 21:45:00,80.1,58.6,29.81,NE,45,0.0,0.0,48,0.00,CLR,,0.00,WeatherDisplay:10.37,2013-06-07 02:45:00,
2013-06-06 21:50:00,80.2,58.8,29.81,NE,45,0.0,0.0,48,0.00,CLR,,0.00,WeatherDisplay:10.37,2013-06-07 02:50:00,
2013-06-06 21:55:00,80.1,58.6,29.81,NNE,22,0.0,0.0,48,0.00,CLR,,0.00,WeatherDisplay:10.37,2013-06-07 02:55:00,
2013-06-06 22:00:00,79.9,58.4,29.81,NNE,22,0.0,0.0,48,0.00,CLR,,0.00,WeatherDisplay:10.37,2013-06-07 03:00:00,
2013-06-06 22:05:00,79.7,58.3,29.81,NNE,22,0.0,0.0,48,0.00,FEW,,0.00,WeatherDisplay:10.37,2013-06-07 03:05:00,
2013-06-06 22:10:00,79.5,58.1,29.81,NNE,22,0.0,0.0,48,0.00,FEW,,0.00,WeatherDisplay:10.37,2013-06-07 03:10:00,
2013-06-06 22:15:00,79.5,58.1,29.81,NNE,22,0.0,0.0,48,0.00,FEW,,0.00,WeatherDisplay:10.37,2013-06-07 03:15:00,
2013-06-06 22:20:00,79.3,57.9,29.81,NNE,22,0.0,0.0,48,0.00,FEW,,0.00,WeatherDisplay:10.37,2013-06-07 03:20:00,
2013-06-06 22:25:00,79.0,62.9,29.81,NNE,22,0.0,0.0,58,0.00,FEW,,0.00,WeatherDisplay:10.37,2013-06-07 03:25:00,
2013-06-06 22:30:00,79.0,62.9,29.81,NNE,22,0.0,0.0,58,0.00,FEW,,0.00,WeatherDisplay:10.37,2013-06-07 03:30:00,
2013-06-06 22:35:00,78.6,62.6,29.81,NE,45,1.2,1.2,58,0.00,FEW,,0.00,WeatherDisplay:10.37,2013-06-07 03:35:00,
2013-06-06 22:40:00,79.0,62.9,29.81,ENE,68,0.9,2.0,58,0.00,FEW,,0.00,WeatherDisplay:10.37,2013-06-07 03:40:00,
2013-06-06 22:45:00,79.3,57.9,29.81,NE,45,1.2,1.4,48,0.00,FEW,,0.00,WeatherDisplay:10.37,2013-06-07 03:45:00,
2013-06-06 22:50:00,79.7,58.3,29.81,NE,45,1.2,1.2,48,0.00,FEW,,0.00,WeatherDisplay:10.37,2013-06-07 03:50:00,
2013-06-06 22:55:00,79.3,57.9,29.81,NE,45,1.2,1.2,48,0.00,FEW,,0.00,WeatherDisplay:10.37,2013-06-07 03:55:00,
2013-06-06 23:00:00,79.3,57.9,29.81,ENE,68,2.2,2.2,48,0.00,BKN,,0.00,WeatherDisplay:10.37,2013-06-07 04:00:00,
2013-06-06 23:01:00,79.3,57.9,29.81,ENE,68,2.3,2.3,48,0.00,BKN,,0.00,WeatherDisplay:10.37,2013-06-07 04:01:00,
2013-06-06 23:02:00,79.2,57.8,29.81,ENE,68,2.3,2.3,48,0.00,BKN,,0.00,WeatherDisplay:10.37,2013-06-07 04:02:00,
2013-06-06 23:07:00,79.2,57.8,29.83,ENE,68,0.0,0.0,48,0.00,BKN,,0.00,WeatherDisplay:10.37,2013-06-07 04:07:00,
2013-06-06 23:12:00,79.0,62.9,29.83,ENE,68,1.2,1.2,58,0.00,BKN,,0.00,WeatherDisplay:10.37,2013-06-07 04:12:00,
2013-06-06 23:17:00,79.0,62.9,29.83,NE,45,2.3,2.3,58,0.00,BKN,,0.00,WeatherDisplay:10.37,2013-06-07 04:17:00,
2013-06-06 23:22:00,79.9,58.4,29.86,North,0,5.8,5.8,48,0.00,BKN,,0.00,WeatherDisplay:10.37,2013-06-07 04:22:00,
2013-06-06 23:27:00,81.1,59.6,29.86,North,0,6.0,6.0,48,0.00,BKN,,0.00,WeatherDisplay:10.37,2013-06-07 04:27:00,
2013-06-06 23:32:00,81.3,59.8,29.86,North,0,6.0,6.0,48,0.00,BKN,,0.00,WeatherDisplay:10.37,2013-06-07 04:32:00,
2013-06-06 23:37:00,81.7,60.1,29.86,NE,45,5.8,5.8,48,0.00,BKN,,0.00,WeatherDisplay:10.37,2013-06-07 04:37:00,
2013-06-06 23:42:00,81.7,60.1,29.86,ENE,68,5.8,6.2,48,0.00,BKN,,0.00,WeatherDisplay:10.37,2013-06-07 04:42:00,
2013-06-06 23:47:00,81.7,60.1,29.86,North,0,8.1,8.1,48,0.00,BKN,,0.00,WeatherDisplay:10.37,2013-06-07 04:47:00,
2013-06-06 23:52:00,81.5,59.9,29.89,NE,45,9.2,9.2,48,0.00,BKN,,0.00,WeatherDisplay:10.37,2013-06-07 04:52:00,
2013-06-06 23:57:00,81.3,59.8,29.89,WSW,248,4.6,4.9,48,0.00,BKN,,0.00,WeatherDisplay:10.37,2013-06-07 04:57:00,